createdAt,value
2023-02-19T00:01:46.889Z,12.03
2023-02-19T00:04:16.463Z,12.06
2023-02-19T00:06:46.970Z,12.03
2023-02-19T00:09:19.289Z,12.08
2023-02-19T00:11:47.988Z,12.08
2023-02-19T00:14:17.818Z,12.03
2023-02-19T00:16:46.093Z,12.02
2023-02-19T00:19:15.924Z,12.05
2023-02-19T00:22:15.095Z,12.02
2023-02-19T00:24:49.030Z,11.89
2023-02-19T00:27:17.500Z,11.93
2023-02-19T00:29:45.722Z,11.96
2023-02-19T00:32:13.963Z,11.95
2023-02-19T00:34:42.243Z,11.96
2023-02-19T00:37:10.489Z,12.03
2023-02-19T00:39:49.984Z,12.02
2023-02-19T00:42:18.178Z,12.09
2023-02-19T00:44:46.381Z,12.15
2023-02-19T00:47:14.558Z,12.13
2023-02-19T00:49:42.830Z,12.13
2023-02-19T00:52:11.066Z,12.22
2023-02-19T00:54:39.317Z,12.34
2023-02-19T00:57:09.068Z,12.37
2023-02-19T00:59:37.438Z,12.32
2023-02-19T01:02:05.729Z,12.30
2023-02-19T01:04:33.984Z,12.25
2023-02-19T01:07:30.003Z,12.10
2023-02-19T01:10:00.208Z,12.10
2023-02-19T01:12:29.839Z,12.12
2023-02-19T01:14:58.056Z,12.08
2023-02-19T01:17:26.329Z,12.02
2023-02-19T01:19:54.709Z,12.02
2023-02-19T01:22:22.836Z,12.02
2023-02-19T01:24:51.058Z,11.95
2023-02-19T01:27:19.282Z,11.89
2023-02-19T01:29:49.000Z,11.89
2023-02-19T01:32:17.160Z,11.79
2023-02-19T01:34:45.505Z,11.79
2023-02-19T01:37:13.616Z,11.89
2023-02-19T01:39:48.899Z,11.93
2023-02-19T01:42:18.038Z,11.93
2023-02-19T01:45:25.601Z,11.93
2023-02-19T01:48:22.244Z,11.88
2023-02-19T01:50:53.579Z,11.88
2023-02-19T01:53:28.272Z,11.88
2023-02-19T01:56:00.485Z,11.93
2023-02-19T01:59:18.776Z,11.85
2023-02-19T02:01:47.372Z,11.83
2023-02-19T02:04:21.137Z,11.79
2023-02-19T02:06:53.664Z,11.77
2023-02-19T02:09:57.773Z,11.78
2023-02-19T02:12:26.254Z,11.71
2023-02-19T02:14:54.512Z,11.71
2023-02-19T02:17:27.871Z,11.67
2023-02-19T02:20:13.272Z,11.64
2023-02-19T02:22:46.106Z,11.65
2023-02-19T02:25:41.458Z,11.63
2023-02-19T02:28:29.846Z,11.54
2023-02-19T02:31:03.386Z,11.50
2023-02-19T02:33:37.784Z,11.45
2023-02-19T02:36:09.066Z,11.44
2023-02-19T02:38:45.115Z,11.43
2023-02-19T02:41:16.275Z,11.41
2023-02-19T02:43:44.488Z,11.34
2023-02-19T02:46:17.074Z,11.26
2023-02-19T02:48:54.018Z,11.20
2023-02-19T02:51:27.967Z,11.19
2023-02-19T02:54:29.189Z,11.23
2023-02-19T02:57:00.640Z,11.22
2023-02-19T02:59:37.031Z,11.20
2023-02-19T03:02:12.023Z,11.23
2023-02-19T03:05:02.234Z,11.24
2023-02-19T03:07:37.244Z,11.19
2023-02-19T03:10:08.644Z,11.12
2023-02-19T03:12:56.368Z,11.12
2023-02-19T03:15:43.354Z,11.10
2023-02-19T03:18:33.080Z,11.07
2023-02-19T03:21:02.927Z,11.07
2023-02-19T03:23:53.446Z,11.07
2023-02-19T03:26:23.003Z,11.05
2023-02-19T03:29:12.706Z,11.09
2023-02-19T03:31:46.506Z,11.12
2023-02-19T03:34:21.421Z,11.15
2023-02-19T03:36:54.709Z,11.15
2023-02-19T03:39:25.700Z,11.20
2023-02-19T03:42:03.347Z,11.13
2023-02-19T03:44:42.116Z,11.16
2023-02-19T03:47:16.898Z,11.20
2023-02-19T03:49:53.156Z,11.20
2023-02-19T03:52:32.006Z,11.23
2023-02-19T03:59:25.147Z,11.12
2023-02-19T04:01:57.925Z,11.10
2023-02-19T04:04:30.808Z,11.06
2023-02-19T04:07:00.642Z,10.98
2023-02-19T04:09:37.732Z,10.98
2023-02-19T04:12:14.182Z,10.93
2023-02-19T04:14:47.030Z,10.88
2023-02-19T04:17:23.562Z,10.83
2023-02-19T04:19:55.776Z,10.76
2023-02-19T04:22:26.489Z,10.68
2023-02-19T04:24:56.789Z,10.59
2023-02-19T04:27:25.048Z,10.54
2023-02-19T04:29:53.315Z,10.51
2023-02-19T04:32:21.747Z,10.50
2023-02-19T04:34:49.994Z,10.41
2023-02-19T04:37:18.250Z,10.31
2023-02-19T04:39:47.895Z,10.20
2023-02-19T04:42:16.394Z,10.13
2023-02-19T04:44:44.812Z,10.03
2023-02-19T04:47:13.089Z,10.00
2023-02-19T04:49:41.253Z,9.99
2023-02-19T04:52:09.400Z,9.96
2023-02-19T04:54:44.475Z,9.90
2023-02-19T04:57:14.047Z,9.92
2023-02-19T04:59:47.648Z,9.89
2023-02-19T05:02:18.981Z,9.87
2023-02-19T05:04:47.163Z,9.90
2023-02-19T05:07:16.328Z,9.92
2023-02-19T05:09:44.501Z,9.89
2023-02-19T05:12:14.065Z,9.90
2023-02-19T05:14:42.316Z,9.78
2023-02-19T05:17:10.499Z,9.71
2023-02-19T05:19:42.310Z,9.66
2023-02-19T05:22:29.573Z,9.59
2023-02-19T05:25:26.038Z,9.49
2023-02-19T05:28:15.665Z,9.42
2023-02-19T05:30:43.897Z,9.30
2023-02-19T05:33:12.083Z,9.27
2023-02-19T05:35:45.325Z,9.21
2023-02-19T05:38:13.699Z,9.17
2023-02-19T05:40:42.603Z,9.18
2023-02-19T05:43:14.856Z,9.18
2023-02-19T05:45:46.330Z,9.14
2023-02-19T05:48:15.681Z,9.08
2023-02-19T05:50:47.308Z,9.06
2023-02-19T05:53:19.261Z,9.04
2023-02-19T05:55:47.460Z,9.07
2023-02-19T05:58:18.031Z,9.08
2023-02-19T06:00:46.298Z,9.13
2023-02-19T06:03:14.522Z,9.16
2023-02-19T06:05:42.807Z,9.14
2023-02-19T06:08:12.189Z,9.20
2023-02-19T06:10:41.446Z,9.20
2023-02-19T06:13:12.359Z,9.24
2023-02-19T06:15:41.971Z,9.28
2023-02-19T06:18:10.241Z,9.32
2023-02-19T06:20:38.762Z,9.35
2023-02-19T06:23:07.030Z,9.37
2023-02-19T06:25:35.159Z,9.38
2023-02-19T06:28:03.274Z,9.38
2023-02-19T06:30:36.277Z,9.38
2023-02-19T06:33:07.944Z,9.39
2023-02-19T06:35:36.214Z,9.39
2023-02-19T06:42:23.232Z,9.45
2023-02-19T06:44:51.465Z,9.51
2023-02-19T06:47:24.324Z,9.58
2023-02-19T06:50:23.833Z,9.69
2023-02-19T06:52:56.689Z,9.79
2023-02-19T06:55:35.046Z,9.89
2023-02-19T06:58:08.941Z,9.96
2023-02-19T07:00:37.306Z,10.06
2023-02-19T07:03:05.736Z,10.20
2023-02-19T07:05:35.904Z,10.27
2023-02-19T07:08:06.031Z,10.37
2023-02-19T07:14:52.040Z,10.45
2023-02-19T07:21:38.528Z,10.58
2023-02-19T07:24:08.473Z,10.58
2023-02-19T07:26:37.087Z,10.62
2023-02-19T07:29:05.717Z,10.67
2023-02-19T07:31:34.017Z,10.82
2023-02-19T07:34:02.397Z,10.93
2023-02-19T07:36:30.588Z,10.95
2023-02-19T07:39:01.934Z,10.99
2023-02-19T07:41:33.638Z,10.98
2023-02-19T07:44:03.935Z,10.86
2023-02-19T07:46:32.572Z,10.86
2023-02-19T07:49:01.238Z,10.79
2023-02-19T07:51:30.581Z,10.79
2023-02-19T07:53:59.786Z,10.83
2023-02-19T07:56:28.984Z,10.83
2023-02-19T07:58:58.722Z,10.75
2023-02-19T08:01:40.760Z,10.65
2023-02-19T08:04:09.269Z,10.54
2023-02-19T08:06:37.639Z,10.47
2023-02-19T08:09:06.436Z,10.38
2023-02-19T08:11:52.432Z,10.29
2023-02-19T08:14:26.255Z,10.12
2023-02-19T08:16:54.874Z,10.07
2023-02-19T08:19:23.673Z,10.06
2023-02-19T08:21:53.668Z,9.97
2023-02-19T08:24:22.176Z,9.99
2023-02-19T08:26:50.390Z,9.96
2023-02-19T08:29:18.741Z,9.93
2023-02-19T08:31:48.598Z,9.90
2023-02-19T08:34:16.919Z,9.93
2023-02-19T08:36:45.454Z,9.86
2023-02-19T08:39:13.883Z,9.86
2023-02-19T08:41:42.148Z,9.82
2023-02-19T08:44:10.465Z,9.82
2023-02-19T08:46:39.143Z,9.82
2023-02-19T08:49:08.854Z,9.82
2023-02-19T08:51:37.133Z,9.87
2023-02-19T08:54:06.035Z,9.90
2023-02-19T08:56:34.335Z,9.87
2023-02-19T08:59:03.036Z,9.92
2023-02-19T09:01:31.313Z,9.93
2023-02-19T09:03:59.577Z,9.90
2023-02-19T09:06:29.252Z,9.85
2023-02-19T09:08:57.544Z,9.79
2023-02-19T09:11:25.800Z,9.78
2023-02-19T09:13:56.662Z,9.76
2023-02-19T09:16:24.976Z,9.78
2023-02-19T09:18:53.256Z,9.75
2023-02-19T09:21:21.544Z,9.78
2023-02-19T09:23:51.157Z,9.83
2023-02-19T09:26:19.363Z,9.83
2023-02-19T09:28:47.760Z,9.85
2023-02-19T09:31:17.413Z,9.89
2023-02-19T09:33:46.035Z,9.92
2023-02-19T09:36:17.151Z,9.97
2023-02-19T09:38:45.762Z,10.04
2023-02-19T09:41:23.740Z,10.12
2023-02-19T09:43:52.460Z,10.16
2023-02-19T09:46:30.242Z,10.21
2023-02-19T09:49:04.809Z,10.24
2023-02-19T09:51:35.686Z,10.29
2023-02-19T09:54:06.681Z,10.36
2023-02-19T09:56:37.171Z,10.61
2023-02-19T09:59:08.402Z,10.92
2023-02-19T10:01:40.783Z,11.12
2023-02-19T10:04:11.514Z,11.20
2023-02-19T10:06:40.223Z,11.30
2023-02-19T10:09:23.686Z,11.53
2023-02-19T10:11:57.033Z,11.79
2023-02-19T10:14:35.921Z,11.86
2023-02-19T10:17:06.498Z,12.16
2023-02-19T10:19:35.806Z,12.44
2023-02-19T10:22:05.466Z,12.71
2023-02-19T10:24:35.483Z,12.81
2023-02-19T10:27:11.570Z,12.73
2023-02-19T10:29:41.481Z,12.69
2023-02-19T10:32:21.243Z,12.60
2023-02-19T10:34:51.479Z,12.60
2023-02-19T10:37:20.988Z,12.80
2023-02-19T10:39:52.422Z,12.94
2023-02-19T10:42:24.979Z,13.06
2023-02-19T10:45:01.829Z,13.26
2023-02-19T10:47:33.052Z,13.49
2023-02-19T10:50:04.646Z,13.60
2023-02-19T10:52:37.061Z,13.74
2023-02-19T10:55:28.656Z,13.85
2023-02-19T10:57:59.470Z,13.95
2023-02-19T11:00:30.868Z,14.09
2023-02-19T11:03:21.151Z,14.05
2023-02-19T11:05:59.265Z,14.04
2023-02-19T11:08:32.807Z,13.92
2023-02-19T11:11:02.539Z,13.75
2023-02-19T11:13:38.331Z,13.73
2023-02-19T11:16:07.630Z,13.87
2023-02-19T11:18:37.373Z,14.07
2023-02-19T11:21:09.574Z,14.28
2023-02-19T11:23:45.422Z,14.40
2023-02-19T11:26:20.428Z,14.52
2023-02-19T11:28:59.552Z,14.57
2023-02-19T11:31:32.750Z,14.62
2023-02-19T11:34:05.483Z,14.67
2023-02-19T11:36:41.019Z,14.74
2023-02-19T11:39:24.143Z,14.87
2023-02-19T11:42:15.376Z,14.91
2023-02-19T11:45:04.644Z,14.97
2023-02-19T11:48:06.273Z,14.95
2023-02-19T11:50:49.868Z,14.77
2023-02-19T11:53:26.722Z,14.83
2023-02-19T11:56:10.073Z,14.93
2023-02-19T11:58:53.809Z,14.94
2023-02-19T12:01:32.168Z,14.90
2023-02-19T12:04:38.884Z,15.08
2023-02-19T12:07:20.118Z,15.15
2023-02-19T12:10:02.177Z,15.10
2023-02-19T12:12:49.085Z,15.14
2023-02-19T12:15:33.337Z,15.24
2023-02-19T12:18:41.459Z,15.14
2023-02-19T12:21:28.140Z,15.10
2023-02-19T12:24:10.984Z,14.91
2023-02-19T12:26:45.248Z,14.85
2023-02-19T12:29:32.882Z,14.73
2023-02-19T12:32:34.897Z,14.64
2023-02-19T12:35:55.492Z,14.50
2023-02-19T12:38:35.365Z,14.47
2023-02-19T12:41:32.406Z,14.52
2023-02-19T12:44:07.317Z,14.57
2023-02-19T12:46:40.628Z,14.83
2023-02-19T12:49:16.796Z,14.88
2023-02-19T12:51:50.166Z,15.10
2023-02-19T12:54:26.802Z,15.04
2023-02-19T12:57:03.475Z,15.14
2023-02-19T12:59:36.780Z,15.31
2023-02-19T13:02:16.846Z,15.60
2023-02-19T13:04:52.689Z,15.66
2023-02-19T13:07:27.145Z,15.46
2023-02-19T13:10:01.940Z,15.36
2023-02-19T13:12:34.672Z,15.25
2023-02-19T13:15:09.270Z,15.25
2023-02-19T13:17:44.570Z,15.18
2023-02-19T13:20:22.168Z,14.90
2023-02-19T13:23:20.103Z,14.74
2023-02-19T13:26:05.330Z,14.62
2023-02-19T13:28:59.645Z,14.40
2023-02-19T13:31:50.869Z,14.24
2023-02-19T13:34:32.826Z,13.91
2023-02-19T13:37:03.137Z,13.61
2023-02-19T13:39:33.261Z,13.46
2023-02-19T13:42:07.287Z,13.33
2023-02-19T13:44:39.028Z,13.32
2023-02-19T13:47:28.414Z,13.32
2023-02-19T13:50:06.850Z,13.22
2023-02-19T13:52:42.854Z,13.05
2023-02-19T13:55:52.192Z,12.91
2023-02-19T13:59:02.901Z,12.77
2023-02-19T14:02:04.985Z,12.48
2023-02-19T14:04:54.517Z,11.95
2023-02-19T14:07:56.814Z,11.43
2023-02-19T14:11:02.774Z,11.31
2023-02-19T14:14:06.803Z,11.17
2023-02-19T14:17:06.149Z,11.00
2023-02-19T14:19:54.097Z,10.96
2023-02-19T14:23:04.233Z,11.02
2023-02-19T14:25:41.350Z,11.03
2023-02-19T14:28:22.710Z,11.06
2023-02-19T14:30:59.172Z,11.13
2023-02-19T14:33:31.567Z,11.23
2023-02-19T14:36:06.384Z,11.34
2023-02-19T14:38:40.726Z,11.36
2023-02-19T14:41:15.165Z,11.43
2023-02-19T14:43:45.194Z,11.45
2023-02-19T14:46:23.569Z,11.44
2023-02-19T14:48:54.035Z,11.45
2023-02-19T14:51:32.188Z,11.40
2023-02-19T14:54:07.528Z,11.36
2023-02-19T14:56:38.255Z,11.36
2023-02-19T14:59:26.177Z,11.22
2023-02-19T15:02:05.785Z,10.91
2023-02-19T15:04:38.746Z,10.68
2023-02-19T15:07:11.100Z,10.59
2023-02-19T15:09:45.263Z,10.51
2023-02-19T15:12:21.601Z,10.50
2023-02-19T15:14:55.138Z,10.52
2023-02-19T15:17:30.051Z,10.58
2023-02-19T15:20:03.990Z,10.58
2023-02-19T15:22:35.383Z,10.59
2023-02-19T15:25:08.602Z,10.62
2023-02-19T15:27:40.114Z,10.58
2023-02-19T15:30:21.351Z,10.58
2023-02-19T15:32:58.673Z,10.58
2023-02-19T15:35:40.509Z,10.61
2023-02-19T15:38:15.148Z,10.65
2023-02-19T15:40:47.344Z,10.73
2023-02-19T15:43:25.082Z,10.76
2023-02-19T15:45:58.617Z,10.80
2023-02-19T15:48:36.895Z,10.88
2023-02-19T15:51:12.357Z,10.95
2023-02-19T15:53:49.680Z,10.92
2023-02-19T15:56:32.544Z,10.89
2023-02-19T15:59:06.745Z,10.88
2023-02-19T16:01:42.009Z,10.88
2023-02-19T16:04:16.486Z,10.89
2023-02-19T16:06:58.908Z,10.88
2023-02-19T16:09:34.742Z,10.89
2023-02-19T16:12:21.050Z,10.82
2023-02-19T16:14:53.865Z,10.79
2023-02-19T16:17:28.975Z,10.76
2023-02-19T16:20:02.762Z,10.82
2023-02-19T16:22:35.492Z,10.73
2023-02-19T16:25:09.305Z,10.73
2023-02-19T16:27:42.102Z,10.82
2023-02-19T16:30:28.681Z,10.75
2023-02-19T16:33:34.938Z,10.68
2023-02-19T16:36:30.481Z,10.72
2023-02-19T16:39:19.739Z,10.73
2023-02-19T16:42:20.111Z,10.76
2023-02-19T16:44:51.120Z,10.71
2023-02-19T16:47:31.432Z,10.44
2023-02-19T16:50:08.105Z,10.31
2023-02-19T16:52:42.918Z,10.24
2023-02-19T16:55:16.491Z,10.25
2023-02-19T16:57:50.941Z,10.09
2023-02-19T17:00:23.065Z,9.87
2023-02-19T17:02:55.730Z,9.71
2023-02-19T17:05:27.871Z,9.69
2023-02-19T17:07:59.418Z,9.55
2023-02-19T17:10:30.505Z,9.51
2023-02-19T17:13:00.124Z,9.48
2023-02-19T17:15:31.202Z,9.41
2023-02-19T17:18:01.692Z,9.37
2023-02-19T17:20:38.740Z,9.34
2023-02-19T17:23:19.677Z,9.37
2023-02-19T17:25:49.528Z,9.35
2023-02-19T17:28:20.210Z,9.32
2023-02-19T17:30:50.602Z,9.37
2023-02-19T17:33:22.167Z,9.35
2023-02-19T17:35:51.666Z,9.39
2023-02-19T17:38:23.489Z,9.42
2023-02-19T17:41:00.882Z,9.48
2023-02-19T17:43:32.821Z,9.54
2023-02-19T17:46:02.554Z,9.48
2023-02-19T17:48:33.956Z,9.39
2023-02-19T17:51:05.544Z,9.34
2023-02-19T17:53:37.413Z,9.26
2023-02-19T17:56:08.118Z,9.08
2023-02-19T17:58:39.056Z,8.93
2023-02-19T18:01:10.901Z,8.83
2023-02-19T18:03:42.481Z,8.83
2023-02-19T18:06:12.151Z,8.80
2023-02-19T18:08:50.103Z,8.83
2023-02-19T18:11:20.480Z,8.76
2023-02-19T18:13:51.157Z,8.76
2023-02-19T18:16:21.340Z,8.72
2023-02-19T18:18:51.630Z,8.69
2023-02-19T18:21:27.168Z,8.62
2023-02-19T18:23:59.301Z,8.59
2023-02-19T18:26:29.051Z,8.49
2023-02-19T18:29:00.178Z,8.48
2023-02-19T18:31:40.015Z,8.41
2023-02-19T18:34:19.474Z,8.38
2023-02-19T18:36:50.498Z,8.31
2023-02-19T18:39:23.628Z,8.23
2023-02-19T18:41:54.489Z,8.27
2023-02-19T18:44:27.918Z,8.23
2023-02-19T18:47:01.274Z,8.17
2023-02-19T18:49:32.964Z,8.14
2023-02-19T18:52:12.921Z,8.11
2023-02-19T18:54:44.781Z,8.13
2023-02-19T18:57:15.609Z,8.10
2023-02-19T18:59:46.568Z,8.07
2023-02-19T19:02:18.089Z,8.05
2023-02-19T19:04:59.043Z,8.04
2023-02-19T19:07:31.136Z,8.01
2023-02-19T19:10:06.717Z,8.10
2023-02-19T19:12:37.905Z,8.04
2023-02-19T19:15:11.973Z,7.98
2023-02-19T19:17:42.277Z,7.94
2023-02-19T19:20:13.164Z,7.93
2023-02-19T19:22:46.457Z,7.96
2023-02-19T19:25:18.791Z,7.91
2023-02-19T19:27:52.195Z,7.93
2023-02-19T19:30:23.178Z,7.94
2023-02-19T19:32:54.313Z,7.89
2023-02-19T19:35:25.093Z,7.91
2023-02-19T19:37:56.962Z,7.96
2023-02-19T19:40:31.617Z,7.96
2023-02-19T19:43:01.946Z,7.87
2023-02-19T19:45:32.681Z,7.90
2023-02-19T19:48:02.474Z,7.90
2023-02-19T19:50:33.512Z,7.87
2023-02-19T19:53:03.526Z,7.87
2023-02-19T19:55:38.136Z,7.80
2023-02-19T19:58:08.690Z,7.73
2023-02-19T20:00:39.779Z,7.76
2023-02-19T20:03:10.496Z,7.72
2023-02-19T20:05:41.092Z,7.63
2023-02-19T20:08:11.306Z,7.61
2023-02-19T20:10:45.415Z,7.54
2023-02-19T20:13:19.997Z,7.52
2023-02-19T20:15:53.944Z,7.48
2023-02-19T20:18:26.110Z,7.48
2023-02-19T20:20:58.884Z,7.45
2023-02-19T20:23:37.534Z,7.32
2023-02-19T20:26:11.164Z,7.29
2023-02-19T20:28:48.728Z,7.24
2023-02-19T20:31:19.391Z,7.24
2023-02-19T20:33:52.664Z,7.18
2023-02-19T20:36:24.548Z,7.12
2023-02-19T20:38:55.030Z,7.07
2023-02-19T20:41:29.867Z,7.01
2023-02-19T20:44:01.320Z,6.97
2023-02-19T20:46:33.083Z,6.94
2023-02-19T20:49:03.860Z,6.90
2023-02-19T20:51:34.054Z,6.83
2023-02-19T20:54:08.045Z,6.77
2023-02-19T20:56:41.812Z,6.68
2023-02-19T20:59:13.586Z,6.63
2023-02-19T21:01:44.106Z,6.53
2023-02-19T21:04:14.902Z,6.49
2023-02-19T21:06:44.422Z,6.42
2023-02-19T21:09:15.590Z,6.36
2023-02-19T21:11:50.216Z,6.26
2023-02-19T21:14:21.461Z,6.20
2023-02-19T21:16:51.942Z,6.18
2023-02-19T21:19:22.428Z,6.08
2023-02-19T21:21:51.917Z,6.05
2023-02-19T21:24:22.253Z,5.95
2023-02-19T21:26:55.174Z,5.91
2023-02-19T21:29:25.499Z,5.86
2023-02-19T21:31:57.378Z,5.83
2023-02-19T21:34:29.267Z,5.80
2023-02-19T21:37:00.872Z,5.73
2023-02-19T21:39:31.472Z,5.70
2023-02-19T21:42:04.533Z,5.66
2023-02-19T21:44:35.170Z,5.59
2023-02-19T21:47:04.714Z,5.55
2023-02-19T21:49:33.481Z,5.50
2023-02-19T21:52:03.611Z,5.43
2023-02-19T21:54:31.826Z,5.40
2023-02-19T21:57:04.475Z,5.40
2023-02-19T21:59:32.784Z,5.35
2023-02-19T22:02:01.241Z,5.25
2023-02-19T22:04:30.538Z,5.19
2023-02-19T22:06:59.006Z,5.17
2023-02-19T22:09:31.070Z,5.11
2023-02-19T22:11:59.368Z,5.02
2023-02-19T22:14:32.517Z,4.95
2023-02-19T22:17:00.788Z,4.95
2023-02-19T22:19:29.099Z,4.87
2023-02-19T22:21:59.459Z,4.83
2023-02-19T22:24:27.730Z,4.80
2023-02-19T22:27:01.091Z,4.79
2023-02-19T22:29:34.804Z,4.71
2023-02-19T22:32:05.248Z,4.66
2023-02-19T22:34:39.500Z,4.62
2023-02-19T22:37:11.931Z,4.60
2023-02-19T22:39:40.188Z,4.56
2023-02-19T22:42:12.006Z,4.52
2023-02-19T22:44:44.193Z,4.49
2023-02-19T22:47:12.437Z,4.46
2023-02-19T22:49:43.914Z,4.39
2023-02-19T22:52:12.613Z,4.39
2023-02-19T22:54:41.997Z,4.33
2023-02-19T22:57:10.201Z,4.32
2023-02-19T22:59:44.740Z,4.24
2023-02-19T23:02:13.192Z,4.18
2023-02-19T23:04:45.414Z,4.16
2023-02-19T23:07:13.631Z,4.15
2023-02-19T23:09:43.932Z,4.09
2023-02-19T23:12:12.842Z,4.06
2023-02-19T23:14:48.059Z,4.06
2023-02-19T23:17:17.588Z,4.05
2023-02-19T23:19:47.177Z,3.98
2023-02-19T23:22:18.720Z,3.95
2023-02-19T23:25:11.565Z,3.97
2023-02-19T23:27:43.049Z,3.88
2023-02-19T23:30:11.859Z,3.91
2023-02-19T23:32:43.515Z,3.90
2023-02-19T23:35:13.833Z,3.87
2023-02-19T23:37:42.017Z,3.90
2023-02-19T23:40:14.071Z,3.86
2023-02-19T23:42:43.256Z,3.78
2023-02-19T23:45:11.376Z,3.78
2023-02-19T23:47:39.528Z,3.80
2023-02-19T23:50:38.157Z,3.74
2023-02-19T23:53:14.382Z,3.70
2023-02-19T23:56:09.001Z,3.66
2023-02-19T23:58:42.419Z,3.62
